Time;durP1;ratioP1;P1;durP2;ratioP2;P2;SDS_P1;SDS_P2;PMS_P1;PMS_P2;Temp;Humidity;BMP_temperature;BMP_pressure;BME280_temperature;BME280_humidity;BME280_pressure;Samples;Min_cycle;Max_cycle;Signal;HPM_P1;HPM_P2
2022/03/08 00:01:06;;;;;;;;;43.25;41.75;;;;;5.68;39.93;100940.09;5055089;27;45962;-61
2022/03/08 00:03:33;;;;;;;;;45.25;38.25;;;;;5.68;39.79;100935.75;5062656;27;45439;-61
2022/03/08 00:06:00;;;;;;;;;49.75;39.25;;;;;5.66;40.29;100934.03;5069928;27;45491;-61
2022/03/08 00:08:25;;;;;;;;;39.50;35.75;;;;;5.64;39.85;100923.63;5055562;28;45524;-58
2022/03/08 00:10:51;;;;;;;;;32.50;30.50;;;;;5.59;39.65;100921.91;5055195;27;45699;-58
2022/03/08 00:13:16;;;;;;;;;43.25;39.00;;;;;5.68;40.10;100927.06;5058042;28;45519;-63
2022/03/08 00:15:42;;;;;;;;;45.00;41.00;;;;;5.60;39.67;100915.84;5060930;28;45625;-63
2022/03/08 00:18:09;;;;;;;;;40.25;39.25;;;;;5.65;39.60;100929.72;5055655;28;45356;-62
2022/03/08 00:20:36;;;;;;;;;43.25;38.75;;;;;5.64;40.09;100915.81;5053716;28;46226;-58
2022/03/08 00:23:02;;;;;;;;;43.00;39.25;;;;;5.61;40.12;100910.59;5067210;27;45458;-60
2022/03/08 00:25:27;;;;;;;;;46.50;42.50;;;;;5.59;39.82;100921.91;5057437;28;45456;-62
2022/03/08 00:27:53;;;;;;;;;46.00;33.00;;;;;5.56;39.85;100919.34;5069971;28;45471;-62
2022/03/08 00:30:23;;;;;;;;;34.25;31.25;;;;;5.58;40.28;100917.59;5066681;27;46258;-64
2022/03/08 00:32:51;;;;;;;;;44.00;38.00;;;;;5.57;40.35;100926.31;5058130;28;45546;-59
2022/03/08 00:35:17;;;;;;;;;44.75;40.75;;;;;5.58;39.98;100926.28;5056115;28;45601;-59
2022/03/08 00:37:47;;;;;;;;;42.25;40.00;;;;;5.54;40.54;100925.44;5059411;28;45591;-63
2022/03/08 00:40:15;;;;;;;;;41.50;38.75;;;;;5.52;40.27;100924.59;5057350;27;46175;-60
2022/03/08 00:42:41;;;;;;;;;49.00;41.75;;;;;5.50;40.28;100923.72;5058289;28;45444;-59
2022/03/08 00:45:08;;;;;;;;;43.50;34.25;;;;;5.45;40.53;100922.91;5054174;28;45537;-59
2022/03/08 00:47:36;;;;;;;;;46.00;39.25;;;;;5.43;40.54;100929.91;5054351;27;45494;-59
2022/03/08 00:50:03;;;;;;;;;46.50;38.75;;;;;5.37;40.35;100927.31;5050296;28;45416;-60
2022/03/08 00:52:29;;;;;;;;;41.25;38.00;;;;;5.32;40.73;100919.56;5070860;28;45544;-58
2022/03/08 00:54:55;;;;;;;;;47.25;38.75;;;;;5.27;40.34;100916.13;5054931;28;45493;-62
2022/03/08 00:57:20;;;;;;;;;47.25;39.00;;;;;5.25;41.13;100911.81;5065895;28;45561;-62
2022/03/08 00:59:45;;;;;;;;;40.75;36.00;;;;;5.23;40.62;100917.03;5063052;27;46218;-62
2022/03/08 01:02:11;;;;;;;;;42.50;40.75;;;;;5.25;40.87;100922.22;5069381;28;45596;-57
2022/03/08 01:04:36;;;;;;;;;42.25;39.00;;;;;5.16;40.76;100920.56;5058457;28;45391;-62
2022/03/08 01:07:02;;;;;;;;;43.00;40.25;;;;;5.21;41.06;100915.31;5058666;27;45587;-60
2022/03/08 01:09:27;;;;;;;;;45.00;39.50;;;;;5.22;40.66;100912.69;5057452;28;45512;-63
2022/03/08 01:11:53;;;;;;;;;38.50;33.25;;;;;5.26;41.14;100914.38;5057337;28;45618;-60
2022/03/08 01:14:18;;;;;;;;;40.25;38.00;;;;;5.23;40.79;100898.75;5064157;28;45688;-60
2022/03/08 01:16:44;;;;;;;;;28.00;23.25;;;;;5.21;40.70;100903.16;5058327;28;45403;-64
2022/03/08 01:19:09;;;;;;;;;40.00;36.00;;;;;5.20;41.49;100903.16;5057741;28;46203;-59
2022/03/08 01:21:36;;;;;;;;;38.00;38.00;;;;;5.26;40.94;100906.56;5065831;28;45485;-60
2022/03/08 01:24:02;;;;;;;;;49.50;42.25;;;;;5.28;40.88;100906.56;5058257;28;45459;-60
2022/03/08 01:26:27;;;;;;;;;41.25;35.75;;;;;5.27;40.93;100907.44;5057629;28;45656;-64
2022/03/08 01:28:52;;;;;;;;;50.00;38.50;;;;;5.27;41.26;100899.63;5058061;28;45675;-60
2022/03/08 01:31:18;;;;;;;;;45.25;37.75;;;;;5.26;40.50;100901.34;5073075;28;45559;-60
2022/03/08 01:33:43;;;;;;;;;46.75;38.75;;;;;5.28;40.71;100899.59;5075565;27;45419;-61
2022/03/08 01:36:09;;;;;;;;;37.50;37.50;;;;;5.29;40.81;100903.94;5072238;28;45692;-62
2022/03/08 01:38:34;;;;;;;;;48.75;41.00;;;;;5.28;40.65;100907.41;5061274;28;45477;-60
2022/03/08 01:40:59;;;;;;;;;42.25;41.00;;;;;5.26;40.48;100903.94;5061309;28;45429;-62
2022/03/08 01:43:25;;;;;;;;;40.25;38.50;;;;;5.25;40.59;100899.63;5060552;28;45647;-55
2022/03/08 02:10:07;;;;;;;;;45.75;42.00;;;;;5.09;41.23;100892.81;5057478;28;45516;-64
2022/03/08 02:12:32;;;;;;;;;44.50;40.50;;;;;5.08;42.01;100888.50;5061620;28;45491;-59
2022/03/08 02:14:58;;;;;;;;;47.75;40.50;;;;;5.05;41.77;100889.38;5057228;28;45436;-59
2022/03/08 02:17:23;;;;;;;;;48.00;41.75;;;;;4.99;41.04;100873.75;5057254;28;45358;-59
2022/03/08 02:19:48;;;;;;;;;37.50;37.25;;;;;5.03;41.67;100880.69;5057232;28;45460;-64
2022/03/08 02:22:14;;;;;;;;;42.25;37.75;;;;;5.02;42.46;100880.69;5059024;28;45445;-58
2022/03/08 02:24:39;;;;;;;;;42.50;41.00;;;;;5.00;41.93;100880.72;5076119;27;45433;-59
2022/03/08 02:27:06;;;;;;;;;48.00;41.50;;;;;5.00;41.84;100882.47;5066540;27;45422;-60
2022/03/08 02:29:32;;;;;;;;;47.25;41.75;;;;;4.99;41.47;100883.31;5057019;28;45411;-58
2022/03/08 02:31:57;;;;;;;;;42.25;37.75;;;;;5.01;42.03;100879.84;5060511;28;45617;-60
2022/03/08 02:34:22;;;;;;;;;42.50;37.50;;;;;4.98;41.59;100881.63;5075840;28;48060;-59
2022/03/08 02:37:13;;;;;;;;;39.50;38.25;;;;;4.96;41.65;100886.81;5077117;28;45408;-60
2022/03/08 02:39:40;;;;;;;;;46.00;41.00;;;;;4.88;41.89;100873.84;5075483;28;45692;-60
2022/03/08 02:42:07;;;;;;;;;45.75;42.00;;;;;4.90;41.84;100889.47;5063011;27;45535;-61
2022/03/08 02:44:33;;;;;;;;;47.00;42.50;;;;;4.86;41.55;100879.94;5056862;28;45449;-59
2022/03/08 02:47:03;;;;;;;;;58.50;44.00;;;;;4.83;42.13;100878.22;5056598;28;45409;-59
2022/03/08 02:49:29;;;;;;;;;54.25;44.25;;;;;4.78;41.77;100873.94;5057133;28;45454;-62
2022/03/08 02:51:56;;;;;;;;;50.25;41.25;;;;;4.73;42.07;100871.38;5056857;28;45446;-58
2022/03/08 02:54:22;;;;;;;;;46.25;40.50;;;;;4.68;42.63;100869.69;5057224;28;45524;-60
2022/03/08 02:56:47;;;;;;;;;40.00;40.00;;;;;4.63;43.20;100870.56;5066373;28;45488;-63
2022/03/08 02:59:20;;;;;;;;;41.75;39.00;;;;;4.60;42.58;100865.38;5058578;27;45516;-60
2022/03/08 03:01:45;;;;;;;;;45.75;40.00;;;;;4.58;42.34;100861.91;5076876;28;45403;-63
2022/03/08 03:04:10;;;;;;;;;39.25;39.00;;;;;4.55;42.68;100868.88;5059131;28;46544;-61
2022/03/08 03:06:36;;;;;;;;;49.50;41.75;;;;;4.47;43.29;100855.91;5071340;28;45608;-58
2022/03/08 03:09:02;;;;;;;;;47.50;43.00;;;;;4.48;42.51;100856.75;5076414;27;45349;-61
2022/03/08 03:11:27;;;;;;;;;42.75;40.75;;;;;4.53;42.86;100865.41;5059287;28;45458;-62
2022/03/08 03:13:53;;;;;;;;;49.25;40.00;;;;;4.46;42.76;100858.50;5076609;28;46277;-59
2022/03/08 03:16:18;;;;;;;;;45.50;41.25;;;;;4.53;43.26;100857.59;5076803;27;45492;-63
2022/03/08 03:18:43;;;;;;;;;35.75;33.50;;;;;4.55;42.70;100858.47;5076928;28;45505;-62
2022/03/08 03:21:09;;;;;;;;;50.50;40.00;;;;;4.53;43.24;100865.41;5060434;28;45661;-63
2022/03/08 03:23:34;;;;;;;;;40.75;39.25;;;;;4.48;43.51;100855.03;5057658;28;46033;-64
2022/03/08 03:26:00;;;;;;;;;43.50;39.50;;;;;4.49;42.93;100853.31;5056479;28;45502;-58
2022/03/08 03:28:25;;;;;;;;;43.50;39.75;;;;;4.49;43.24;100854.16;5062415;28;45470;-62
2022/03/08 03:30:50;;;;;;;;;32.50;28.25;;;;;4.49;43.42;100848.97;5060648;28;45628;-59
2022/03/08 03:33:16;;;;;;;;;40.00;38.00;;;;;4.48;43.51;100855.03;5076225;28;45437;-61
2022/03/08 03:35:41;;;;;;;;;51.00;43.25;;;;;4.47;43.29;100853.31;5076394;28;46110;-59
2022/03/08 03:38:06;;;;;;;;;43.00;39.50;;;;;4.42;43.67;100847.25;5076443;28;45464;-61
2022/03/08 03:40:31;;;;;;;;;48.00;40.50;;;;;4.43;44.08;100851.56;5063942;28;45426;-63
2022/03/08 03:42:57;;;;;;;;;49.50;42.75;;;;;4.39;43.22;100848.13;5055583;28;45928;-63
2022/03/08 03:45:22;;;;;;;;;46.75;40.25;;;;;4.34;43.45;100836.88;5057037;28;45469;-61
2022/03/08 03:47:47;;;;;;;;;44.75;41.75;;;;;4.32;43.51;100836.03;5060270;28;45412;-63
2022/03/08 03:50:13;;;;;;;;;38.00;32.00;;;;;4.34;43.34;100846.44;5056467;28;45432;-59
2022/03/08 03:52:39;;;;;;;;;42.00;38.00;;;;;4.31;44.40;100836.91;5076364;28;46171;-60
2022/03/08 03:55:05;;;;;;;;;47.50;42.25;;;;;4.32;43.44;100842.97;5069647;28;45440;-60
2022/03/08 03:57:30;;;;;;;;;48.75;40.00;;;;;4.31;43.93;100849.06;5065095;28;45412;-59
2022/03/08 03:59:56;;;;;;;;;45.75;42.00;;;;;4.32;44.34;100843.81;5076321;28;45589;-62
2022/03/08 04:02:21;;;;;;;;;46.50;41.00;;;;;4.32;43.83;100849.03;5058561;28;45561;-59
2022/03/08 04:04:46;;;;;;;;;47.00;41.00;;;;;4.32;44.11;100851.63;5055704;28;45335;-59
2022/03/08 04:07:12;;;;;;;;;49.75;42.50;;;;;4.34;43.83;100849.03;5056797;28;45405;-63
2022/03/08 04:09:37;;;;;;;;;45.25;40.00;;;;;4.32;43.48;100840.38;5069359;27;45599;-62
2022/03/08 04:12:03;;;;;;;;;45.00;41.50;;;;;4.37;43.08;100854.22;5054837;28;45464;-59
2022/03/08 04:14:29;;;;;;;;;50.25;42.00;;;;;4.37;43.66;100851.63;5055152;27;45414;-60
2022/03/08 04:16:55;;;;;;;;;40.25;36.50;;;;;4.35;43.95;100863.78;5055359;28;45551;-62
2022/03/08 04:19:20;;;;;;;;;42.50;40.00;;;;;4.33;43.50;100862.94;5071502;28;45617;-63
2022/03/08 04:21:45;;;;;;;;;47.25;43.25;;;;;4.21;43.33;100838.69;5054984;28;45493;-60
2022/03/08 04:24:11;;;;;;;;;54.75;42.75;;;;;4.37;43.33;100851.63;5070826;28;47890;-58
2022/03/08 04:26:37;;;;;;;;;44.50;40.50;;;;;4.40;43.41;100849.00;5055352;28;45503;-62
2022/03/08 04:29:03;;;;;;;;;43.00;40.00;;;;;4.38;44.08;100849.03;5055578;28;45347;-58
2022/03/08 04:31:28;;;;;;;;;44.75;41.25;;;;;4.36;43.55;100849.91;5073805;27;45484;-61
2022/03/08 04:33:53;;;;;;;;;49.75;40.75;;;;;4.31;43.72;100847.31;5061608;28;45477;-62
2022/03/08 04:36:19;;;;;;;;;56.50;47.75;;;;;4.31;44.13;100843.84;5058682;28;45421;-60
2022/03/08 04:38:44;;;;;;;;;49.75;42.00;;;;;4.27;44.62;100843.03;5059203;28;45438;-60
2022/03/08 04:41:09;;;;;;;;;42.75;40.25;;;;;4.24;43.95;100845.59;5062771;28;46892;-59
2022/03/08 04:43:35;;;;;;;;;43.25;40.75;;;;;4.19;43.42;100840.44;5071636;27;45518;-61
2022/03/08 04:46:00;;;;;;;;;41.75;33.00;;;;;4.19;43.58;100835.25;5059284;28;45412;-60
2022/03/08 04:48:26;;;;;;;;;52.00;40.50;;;;;4.17;43.83;100844.78;5058757;28;45362;-60
2022/03/08 04:50:51;;;;;;;;;43.00;41.25;;;;;4.17;44.62;100846.53;5058471;28;46992;-61
2022/03/08 04:53:16;;;;;;;;;55.00;44.00;;;;;4.17;44.01;100842.19;5057422;28;45412;-58
2022/03/08 04:55:42;;;;;;;;;46.75;42.75;;;;;4.18;44.07;100835.25;5077108;28;45402;-61
2022/03/08 04:58:07;;;;;;;;;51.25;44.00;;;;;4.20;44.25;100833.50;5064326;28;45326;-61
2022/03/08 05:00:32;;;;;;;;;54.50;41.50;;;;;4.18;43.74;100830.91;5058485;28;45482;-60
2022/03/08 05:02:58;;;;;;;;;50.75;43.25;;;;;4.16;43.26;100835.28;5058896;28;45554;-59
2022/03/08 05:05:23;;;;;;;;;48.50;42.50;;;;;4.08;44.43;100834.41;5062139;28;45482;-61
2022/03/08 05:07:49;;;;;;;;;47.00;43.00;;;;;4.10;44.62;100839.63;5066476;28;45378;-62
2022/03/08 05:10:15;;;;;;;;;36.50;33.75;;;;;4.05;43.45;100831.81;5063708;28;45830;-64
2022/03/08 05:12:40;;;;;;;;;41.25;35.50;;;;;4.03;44.26;100832.72;5057969;27;45481;-62
2022/03/08 05:15:07;;;;;;;;;44.25;39.00;;;;;4.01;44.94;100831.88;5064479;27;45540;-62
2022/03/08 05:17:33;;;;;;;;;47.75;41.50;;;;;3.97;44.47;100829.25;5060028;28;45447;-60
2022/03/08 05:19:58;;;;;;;;;54.00;45.00;;;;;3.97;44.46;100825.78;5058849;27;47619;-60
2022/03/08 05:22:24;;;;;;;;;50.00;43.00;;;;;3.95;43.87;100828.44;5079950;27;45462;-63
2022/03/08 05:24:49;;;;;;;;;43.25;39.25;;;;;3.89;44.29;100833.63;5076578;27;45436;-60
2022/03/08 05:27:15;;;;;;;;;45.25;41.75;;;;;3.91;44.52;100836.25;5065828;28;45544;-59
2022/03/08 05:29:40;;;;;;;;;54.75;44.75;;;;;3.93;44.59;100831.91;5061514;28;45505;-60
2022/03/08 05:32:06;;;;;;;;;45.00;41.00;;;;;3.93;45.05;100834.50;5058713;28;45490;-64
2022/03/08 05:34:32;;;;;;;;;50.25;40.25;;;;;3.93;45.07;100826.69;5058975;27;45312;-61
2022/03/08 05:36:57;;;;;;;;;51.75;45.00;;;;;3.90;45.04;100830.19;5073164;28;45503;-60
2022/03/08 05:39:23;;;;;;;;;41.00;39.50;;;;;3.92;44.47;100835.34;5057029;28;46305;-63
2022/03/08 05:41:48;;;;;;;;;49.75;42.75;;;;;3.88;45.36;100828.44;5065023;28;45447;-60
2022/03/08 05:44:14;;;;;;;;;42.00;41.25;;;;;3.90;45.00;100826.72;5065276;28;45477;-60
2022/03/08 05:46:40;;;;;;;;;57.75;45.25;;;;;3.91;45.26;100828.44;5061943;27;45429;-64
2022/03/08 05:49:05;;;;;;;;;45.00;41.00;;;;;3.96;45.12;100829.28;5057924;28;45403;-65
2022/03/08 05:51:30;;;;;;;;;50.00;44.25;;;;;3.83;44.66;100807.66;5061037;28;45511;-63
2022/03/08 05:53:56;;;;;;;;;52.00;44.75;;;;;3.96;45.43;100829.28;5069411;28;45547;-62
2022/03/08 05:56:21;;;;;;;;;40.00;38.75;;;;;3.91;45.26;100828.44;5062040;28;45572;-64
2022/03/08 05:58:47;;;;;;;;;44.00;40.50;;;;;3.88;45.66;100825.84;5057674;28;45902;-60
2022/03/08 06:01:12;;;;;;;;;55.50;46.25;;;;;3.89;44.79;100830.16;5059246;28;45474;-59
2022/03/08 06:03:38;;;;;;;;;56.50;45.00;;;;;3.88;45.38;100831.06;5065340;28;45557;-62
2022/03/08 06:06:03;;;;;;;;;47.00;37.50;;;;;3.87;45.34;100834.50;5057635;28;45504;-62
2022/03/08 06:08:29;;;;;;;;;54.75;45.00;;;;;3.84;45.18;100831.94;5057111;28;46253;-62
2022/03/08 06:10:54;;;;;;;;;50.25;41.25;;;;;3.83;45.66;100844.06;5060532;28;45541;-61
2022/03/08 06:13:19;;;;;;;;;51.75;44.75;;;;;3.84;46.13;100840.63;5060767;28;45554;-60
2022/03/08 06:15:45;;;;;;;;;47.25;42.50;;;;;3.81;45.13;100844.94;5057327;27;45340;-61
2022/03/08 06:18:10;;;;;;;;;56.00;44.00;;;;;3.84;45.29;100853.63;5060829;28;46353;-64
2022/03/08 06:20:35;;;;;;;;;52.50;41.25;;;;;3.83;45.59;100849.28;5060388;27;45367;-61
2022/03/08 06:23:01;;;;;;;;;57.25;42.75;;;;;3.83;45.27;100846.69;5067014;27;45372;-61
2022/03/08 06:25:26;;;;;;;;;51.00;44.25;;;;;3.81;45.33;100837.16;5057306;28;45554;-61
2022/03/08 06:27:52;;;;;;;;;52.25;45.00;;;;;3.81;44.84;100857.97;5060126;28;45529;-61
2022/03/08 06:30:17;;;;;;;;;51.25;46.00;;;;;3.83;45.04;100849.28;5069566;27;45533;-61
2022/03/08 06:32:42;;;;;;;;;60.25;47.00;;;;;3.84;45.46;100855.34;5056659;28;45474;-61
2022/03/08 06:35:08;;;;;;;;;53.50;42.50;;;;;3.78;45.55;100847.56;5057091;28;45317;-61
2022/03/08 06:37:33;;;;;;;;;56.50;44.00;;;;;3.72;45.79;100841.50;5057589;28;45565;-61
2022/03/08 06:39:59;;;;;;;;;50.00;41.50;;;;;3.75;45.73;100851.91;5056936;28;45681;-61
2022/03/08 06:42:24;;;;;;;;;52.25;42.25;;;;;3.68;45.73;100850.22;5066528;28;45548;-60
2022/03/08 06:44:49;;;;;;;;;48.00;44.25;;;;;3.59;45.87;100844.16;5056664;28;45639;-60
2022/03/08 06:47:15;;;;;;;;;49.50;43.75;;;;;3.59;45.86;100845.03;5059614;27;45560;-59
2022/03/08 06:49:41;;;;;;;;;49.75;44.75;;;;;3.54;45.91;100845.03;5071398;27;45532;-58
2022/03/08 06:52:08;;;;;;;;;47.75;41.75;;;;;3.55;46.07;100853.72;5070797;27;45640;-59
2022/03/08 06:54:37;;;;;;;;;45.25;42.00;;;;;3.51;46.24;100845.03;5082276;27;45605;-59
2022/03/08 06:57:03;;;;;;;;;47.00;41.00;;;;;3.55;46.31;100843.31;5066800;27;45391;-60
2022/03/08 06:59:29;;;;;;;;;50.50;44.75;;;;;3.58;46.31;100847.63;5056612;28;45377;-60
2022/03/08 07:01:56;;;;;;;;;50.00;42.75;;;;;3.62;46.42;100852.81;5049301;27;45490;-60
2022/03/08 07:04:22;;;;;;;;;44.00;41.75;;;;;3.62;46.03;100852.81;5080835;27;45413;-61
2022/03/08 07:06:47;;;;;;;;;48.00;42.00;;;;;3.63;46.14;100846.75;5075088;27;46400;-62
2022/03/08 07:09:13;;;;;;;;;48.75;42.75;;;;;3.64;45.94;100845.00;5061760;27;45557;-62
2022/03/08 07:11:40;;;;;;;;;52.75;44.75;;;;;3.64;45.48;100843.28;5066971;27;45572;-62
2022/03/08 07:14:06;;;;;;;;;50.25;44.50;;;;;3.68;45.71;100851.91;5064028;27;45446;-62
2022/03/08 07:16:32;;;;;;;;;51.75;44.50;;;;;3.69;45.80;100848.47;5073298;27;45484;-61
2022/03/08 07:18:58;;;;;;;;;49.25;43.50;;;;;3.72;45.75;100845.84;5060299;27;45566;-60
2022/03/08 07:21:24;;;;;;;;;48.50;42.50;;;;;3.74;46.20;100852.78;5067323;28;45442;-61
2022/03/08 07:23:50;;;;;;;;;48.25;44.00;;;;;3.71;45.98;100850.19;5056380;28;45442;-61
2022/03/08 07:26:15;;;;;;;;;49.25;45.25;;;;;3.71;45.75;100851.94;5069341;28;46061;-60
2022/03/08 07:28:41;;;;;;;;;41.25;36.00;;;;;3.73;46.36;100857.97;5064982;28;45414;-61
2022/03/08 07:31:06;;;;;;;;;48.75;43.25;;;;;3.75;46.56;100870.09;5065019;28;45526;-61
2022/03/08 07:33:32;;;;;;;;;55.75;46.75;;;;;3.79;46.06;100867.50;5055962;28;45587;-61
2022/03/08 07:35:57;;;;;;;;;48.25;40.75;;;;;3.79;45.92;100872.69;5061426;27;45927;-60
2022/03/08 07:38:23;;;;;;;;;48.25;43.25;;;;;3.79;46.14;100872.69;5062548;28;45501;-60
2022/03/08 07:40:49;;;;;;;;;58.00;45.25;;;;;3.81;45.46;100873.56;5073965;27;45658;-61
2022/03/08 07:43:14;;;;;;;;;45.50;41.75;;;;;3.80;45.54;100883.13;5073999;27;45466;-62
2022/03/08 07:45:40;;;;;;;;;51.50;44.50;;;;;3.87;45.33;100890.03;5075143;28;46166;-61
2022/03/08 07:48:06;;;;;;;;;49.00;44.50;;;;;3.89;46.24;100888.28;5075382;28;45490;-61
2022/03/08 07:50:33;;;;;;;;;54.00;46.00;;;;;3.92;45.62;100885.69;5075916;27;45356;-61
2022/03/08 07:53:01;;;;;;;;;50.00;44.25;;;;;3.96;45.40;100883.94;5075773;27;45515;-62
2022/03/08 07:55:29;;;;;;;;;49.00;45.00;;;;;4.02;45.40;100881.28;5075338;28;46113;-62
2022/03/08 07:57:56;;;;;;;;;57.00;45.00;;;;;4.03;45.27;100890.84;5075665;28;45511;-61
2022/03/08 08:00:22;;;;;;;;;51.00;43.25;;;;;4.02;45.48;100883.91;5075734;27;45425;-61
2022/03/08 08:02:47;;;;;;;;;56.50;48.75;;;;;4.07;44.93;100886.50;5074380;27;45549;-61
2022/03/08 08:05:12;;;;;;;;;56.00;46.75;;;;;4.02;44.87;100881.28;5074026;27;46908;-61
2022/03/08 08:07:38;;;;;;;;;52.25;45.50;;;;;4.06;45.17;100888.22;5074306;28;45425;-62
2022/03/08 08:10:04;;;;;;;;;47.75;44.50;;;;;4.06;45.65;100893.44;5075067;28;45463;-61
2022/03/08 08:12:29;;;;;;;;;52.75;46.50;;;;;4.10;45.16;100894.28;5074130;27;45414;-62
2022/03/08 08:14:54;;;;;;;;;60.00;44.75;;;;;4.12;45.52;100890.81;5075109;28;45702;-63
2022/03/08 08:17:20;;;;;;;;;53.50;45.50;;;;;4.16;45.85;100891.66;5075160;28;45584;-62
2022/03/08 08:19:45;;;;;;;;;56.00;48.75;;;;;4.17;45.22;100883.84;5074565;28;45463;-62
2022/03/08 08:22:10;;;;;;;;;57.50;46.00;;;;;4.14;44.83;100877.78;5075069;27;45521;-62
2022/03/08 08:24:36;;;;;;;;;49.50;42.50;;;;;4.15;45.18;100879.50;5075145;27;48272;-62
2022/03/08 08:27:02;;;;;;;;;59.50;46.25;;;;;4.19;44.64;100884.72;5075151;28;45435;-62
2022/03/08 08:29:27;;;;;;;;;54.75;44.75;;;;;4.21;44.57;100877.72;5075422;28;45454;-62
2022/03/08 08:31:52;;;;;;;;;55.25;46.50;;;;;4.26;44.86;100885.53;5075067;28;45374;-62
2022/03/08 08:34:18;;;;;;;;;47.50;40.50;;;;;4.31;45.52;100894.19;5074744;28;46071;-62
2022/03/08 08:36:46;;;;;;;;;53.25;46.00;;;;;4.34;45.66;100893.31;5075072;28;45560;-62
2022/03/08 08:39:12;;;;;;;;;55.25;45.50;;;;;4.35;45.27;100887.22;5075197;27;45385;-62
2022/03/08 08:41:37;;;;;;;;;56.00;44.25;;;;;4.45;45.00;100899.31;5075054;28;45584;-62
2022/03/08 08:44:03;;;;;;;;;49.50;43.25;;;;;4.50;45.44;100905.38;5074697;27;45468;-62
2022/03/08 08:46:28;;;;;;;;;58.75;44.75;;;;;4.56;44.58;100894.03;5074447;28;45327;-63
2022/03/08 08:48:53;;;;;;;;;55.75;44.50;;;;;4.65;45.54;100887.06;5074871;27;45367;-62
2022/03/08 08:51:19;;;;;;;;;51.00;43.00;;;;;4.73;44.61;100894.81;5074488;28;45386;-64
2022/03/08 08:53:44;;;;;;;;;56.00;47.75;;;;;4.78;44.51;100894.78;5074807;28;45477;-63
2022/03/08 08:56:09;;;;;;;;;56.50;46.75;;;;;4.78;44.61;100894.78;5073810;27;45392;-61
2022/03/08 08:58:35;;;;;;;;;56.00;46.00;;;;;4.81;44.47;100897.38;5074925;27;45611;-61
2022/03/08 09:01:00;;;;;;;;;50.75;43.75;;;;;4.86;44.64;100895.59;5074862;28;45588;-62
2022/03/08 09:03:26;;;;;;;;;53.25;41.25;;;;;4.88;44.35;100896.44;5074703;28;45417;-62
2022/03/08 09:05:51;;;;;;;;;56.75;46.25;;;;;4.95;44.87;100892.94;5074684;28;45416;-64
2022/03/08 09:08:23;;;;;;;;;56.75;47.25;;;;;5.01;44.68;100886.78;5073755;27;45458;-61
2022/03/08 09:10:49;;;;;;;;;54.25;45.00;;;;;5.09;44.23;100892.81;5073201;28;45424;-61
2022/03/08 09:13:14;;;;;;;;;64.00;48.25;;;;;5.16;44.14;100889.28;5074576;28;46308;-62
2022/03/08 09:15:40;;;;;;;;;57.50;47.75;;;;;5.31;43.90;100890.88;5074547;27;46533;-62
2022/03/08 09:18:07;;;;;;;;;60.00;47.75;;;;;5.44;44.23;100896.84;5074745;27;45494;-61
2022/03/08 09:20:33;;;;;;;;;60.25;48.00;;;;;5.58;43.87;100894.09;5075032;27;45584;-61
2022/03/08 09:22:59;;;;;;;;;61.75;51.50;;;;;5.58;43.85;100891.50;5077868;27;45520;-62
2022/03/08 09:25:24;;;;;;;;;62.50;51.00;;;;;5.57;43.71;100898.47;5077741;28;45390;-62
2022/03/08 09:27:50;;;;;;;;;59.25;47.75;;;;;5.59;43.79;100883.66;5076435;28;45421;-62
2022/03/08 09:30:16;;;;;;;;;60.00;48.75;;;;;5.62;43.85;100880.16;5077816;28;45369;-62
2022/03/08 09:32:41;;;;;;;;;59.75;49.50;;;;;5.59;43.68;100885.38;5077531;27;46317;-61
2022/03/08 09:35:07;;;;;;;;;64.00;51.00;;;;;5.62;43.94;100873.19;5077620;27;45378;-62
2022/03/08 09:37:32;;;;;;;;;59.50;49.00;;;;;5.69;43.63;100881.81;5077560;27;45466;-61
2022/03/08 09:39:58;;;;;;;;;60.25;48.75;;;;;5.70;44.14;100873.97;5077697;27;45580;-62
2022/03/08 09:42:24;;;;;;;;;62.00;49.25;;;;;5.72;43.61;100881.78;5076046;28;48562;-62
2022/03/08 09:44:50;;;;;;;;;58.50;49.25;;;;;5.74;43.89;100882.63;5077189;27;45389;-62
2022/03/08 09:47:16;;;;;;;;;60.25;51.00;;;;;5.74;43.90;100869.56;5077405;28;45535;-61
2022/03/08 09:49:42;;;;;;;;;62.50;50.75;;;;;5.84;43.77;100871.22;5077428;28;45470;-62
2022/03/08 09:52:08;;;;;;;;;65.50;52.50;;;;;5.91;43.96;100872.88;5077335;28;47389;-62
2022/03/08 09:54:33;;;;;;;;;48.75;42.25;;;;;5.94;43.74;100872.00;5076929;28;45437;-62
2022/03/08 09:56:59;;;;;;;;;65.25;50.00;;;;;5.99;44.52;100880.63;5077195;28;45464;-61
2022/03/08 09:59:29;;;;;;;;;62.50;50.75;;;;;6.04;43.85;100873.59;5077061;27;45579;-62
2022/03/08 10:01:56;;;;;;;;;62.50;51.50;;;;;6.08;43.90;100874.44;5075899;27;47998;-61
2022/03/08 10:04:21;;;;;;;;;86.25;65.25;;;;;6.14;43.95;100875.22;5077171;28;45503;-62
2022/03/08 10:06:48;;;;;;;;;61.25;48.75;;;;;6.23;43.79;100863.78;5077195;28;45457;-62
2022/03/08 10:09:15;;;;;;;;;59.50;49.25;;;;;6.59;43.31;100874.63;5077258;27;45370;-62
2022/03/08 10:11:41;;;;;;;;;63.00;51.50;;;;;6.95;42.71;100869.72;5076621;27;45397;-62
2022/03/08 10:14:14;;;;;;;;;63.50;51.25;;;;;7.06;42.55;100866.03;5076637;27;45473;-62
2022/03/08 10:16:43;;;;;;;;;61.25;51.00;;;;;7.04;42.22;100859.13;5077221;27;45429;-62
2022/03/08 10:19:12;;;;;;;;;65.00;50.50;;;;;7.02;42.59;100855.66;5077146;27;45373;-62
2022/03/08 10:21:47;;;;;;;;;58.25;49.25;;;;;7.03;42.73;100862.63;5076941;28;46183;-62
2022/03/08 10:24:15;;;;;;;;;62.00;49.00;;;;;7.07;42.02;100854.69;5075429;28;45491;-63
2022/03/08 10:26:55;;;;;;;;;63.25;51.25;;;;;7.21;42.23;100841.38;5076807;28;45396;-62
2022/03/08 10:29:31;;;;;;;;;64.50;52.25;;;;;7.65;41.43;100846.69;5075765;28;45693;-62
2022/03/08 10:32:22;;;;;;;;;62.00;51.25;;;;;7.79;40.84;100839.44;5076716;28;45503;-62
2022/03/08 10:34:51;;;;;;;;;58.00;49.00;;;;;7.70;41.56;100847.44;5073741;28;45378;-62
2022/03/08 10:37:23;;;;;;;;;62.75;48.75;;;;;7.59;41.71;100836.34;5076856;27;45440;-62
2022/03/08 10:39:57;;;;;;;;;63.00;51.00;;;;;7.49;41.54;100839.09;5076883;27;45434;-62
2022/03/08 10:42:25;;;;;;;;;62.00;49.50;;;;;7.42;42.40;100845.38;5076644;28;45510;-62
2022/03/08 10:44:53;;;;;;;;;63.00;50.00;;;;;7.43;41.64;100843.59;5076616;28;45480;-63
2022/03/08 10:47:18;;;;;;;;;83.50;66.25;;;;;7.43;42.17;100836.63;5076560;28;45531;-62
2022/03/08 10:49:55;;;;;;;;;57.50;46.75;;;;;7.42;42.13;100842.75;5076591;27;45561;-62
2022/03/08 10:52:30;;;;;;;;;65.00;50.00;;;;;7.44;42.41;100834.84;5076387;27;46512;-61
2022/03/08 10:55:25;;;;;;;;;59.75;50.75;;;;;7.46;42.67;100839.16;5076463;27;45368;-61
2022/03/08 10:58:03;;;;;;;;;57.75;46.50;;;;;7.49;42.40;100841.72;5076606;28;45524;-62
2022/03/08 11:00:53;;;;;;;;;62.50;49.75;;;;;7.50;42.56;100833.00;5076385;27;45400;-62
2022/03/08 11:03:21;;;;;;;;;32.25;28.00;;;;;7.50;42.78;100827.78;5068563;27;45561;-61
2022/03/08 11:05:49;;;;;;;;;60.25;49.00;;;;;7.54;42.37;100825.94;5074509;27;45416;-61
2022/03/08 11:08:15;;;;;;;;;64.75;52.00;;;;;7.59;42.45;100823.25;5076135;28;45489;-62
2022/03/08 11:10:42;;;;;;;;;68.00;52.25;;;;;7.60;42.23;100817.97;5073793;28;45718;-62
2022/03/08 11:13:09;;;;;;;;;65.50;51.00;;;;;7.62;42.71;100815.34;5075858;27;46144;-62
2022/03/08 11:15:37;;;;;;;;;68.75;55.25;;;;;7.66;42.38;100809.16;5075937;27;45554;-64
2022/03/08 11:18:05;;;;;;;;;62.25;51.00;;;;;7.66;42.09;100807.41;5076149;27;45411;-62
2022/03/08 11:20:31;;;;;;;;;62.50;50.25;;;;;7.67;42.45;100808.25;5075944;28;45498;-62
2022/03/08 11:22:58;;;;;;;;;61.25;50.25;;;;;7.70;42.40;100803.81;5075617;28;46030;-62
2022/03/08 11:25:35;;;;;;;;;65.75;51.25;;;;;7.74;42.21;100802.00;5076001;28;45526;-62
2022/03/08 11:28:03;;;;;;;;;62.75;50.25;;;;;7.75;41.90;100796.72;5075917;28;45403;-62
2022/03/08 11:30:33;;;;;;;;;60.75;49.50;;;;;7.79;42.68;100802.78;5075509;28;45455;-62
2022/03/08 11:33:08;;;;;;;;;62.25;50.00;;;;;7.82;42.57;100800.09;5075138;27;46395;-62
2022/03/08 11:35:33;;;;;;;;;63.00;51.75;;;;;7.83;41.61;100804.44;5075679;27;45448;-63
2022/03/08 11:38:00;;;;;;;;;57.75;48.00;;;;;7.87;41.94;100797.34;5075879;27;45433;-62